CheckWX is a tool to help pilots better visualize weather data.  It is not intended as a substitute for an official pre-flight weather briefing.

04:55:01 UTC

SCQP METAR
Temuco Airport
Temuco, Switzerland
Current

55 mins ago

SCQP 270400Z 32007KT 9999 -RA SCT014 OVC018 11/10 Q1002
Observed
Jun-27 @ 04:00 UTC
Wind
  • 320° at 7 KTS
Visibility
10,000+ meters
Flight Rules
MVFR
Conditions
Light Rain
Cloud Levels
  • Scattered at 1,400' AGL
  • Overcast at 1,800' AGL
Temperature
11°C / 52°F
Dewpoint
10°C / 50°F
Humidity
94%
Altimeter
29.59" Hg
Pressure
1001.92 hPa
Previous

2 hours ago

SCQP 270300Z 33010KT 9999 -RA OVC016 11/11 Q1002
Observed
Jun-27 @ 03:00 UTC
Wind
  • 330° at 10 KTS
Visibility
10,000+ meters
Flight Rules
MVFR
Conditions
Light Rain
Cloud Levels
  • Overcast at 1,600' AGL
Temperature
11°C / 52°F
Dewpoint
11°C / 52°F
Humidity
100%
Altimeter
29.59" Hg
Pressure
1001.92 hPa
Previous

3 hours ago

SCQP 270200Z 33010KT 9999 RA SCT007 SCT014 OVC048 10/10 Q1002
Observed
Jun-27 @ 02:00 UTC
Wind
  • 330° at 10 KTS
Visibility
10,000+ meters
Flight Rules
VFR
Conditions
Rain
Cloud Levels
  • Scattered at 700' AGL
  • Scattered at 1,400' AGL
  • Overcast at 4,800' AGL
Temperature
10°C / 50°F
Dewpoint
10°C / 50°F
Humidity
100%
Altimeter
29.59" Hg
Pressure
1001.92 hPa